Time;durP1;ratioP1;P1;durP2;ratioP2;P2;SDS_P1;SDS_P2;PMS_P1;PMS_P2;Temp;Humidity;BMP_temperature;BMP_pressure;BME280_temperature;BME280_humidity;BME280_pressure;Samples;Min_cycle;Max_cycle;Signal;HPM_P1;HPM_P2
2022/08/08 00:00:56;;;;;;;5.20;4.70;;;;;;;;;;4976194;28;20666;-75
2022/08/08 00:03:42;;;;;;;5.80;4.43;;;;;;;;;;4976161;28;20196;-74
2022/08/08 00:06:19;;;;;;;5.30;4.60;;;;;;;;;;4976302;28;20662;-74
2022/08/08 00:09:04;;;;;;;5.47;4.97;;;;;;;;;;4975722;28;20229;-75
2022/08/08 00:11:39;;;;;;;7.40;5.17;;;;;;;;;;4975843;28;20245;-75
2022/08/08 00:14:33;;;;;;;5.87;5.30;;;;;;;;;;4975971;28;20265;-75
2022/08/08 00:17:24;;;;;;;6.50;5.90;;;;;;;;;;4975340;28;20241;-74
2022/08/08 00:20:06;;;;;;;8.93;6.50;;;;;;;;;;4975860;28;20654;-74
2022/08/08 00:22:46;;;;;;;6.90;6.30;;;;;;;;;;4975923;28;20189;-74
2022/08/08 00:25:16;;;;;;;7.10;6.40;;;;;;;;;;4976001;28;20190;-75
2022/08/08 00:27:48;;;;;;;8.17;6.40;;;;;;;;;;4975693;28;20691;-74
2022/08/08 00:30:19;;;;;;;6.90;6.30;;;;;;;;;;4975707;28;20217;-75
2022/08/08 00:32:52;;;;;;;6.30;5.40;;;;;;;;;;4975580;28;20190;-75
2022/08/08 00:35:27;;;;;;;6.43;5.83;;;;;;;;;;4975702;28;20201;-75
2022/08/08 00:38:01;;;;;;;6.27;5.67;;;;;;;;;;4975539;28;20233;-74
2022/08/08 00:40:49;;;;;;;5.80;5.30;;;;;;;;;;4975402;28;20193;-74
2022/08/08 00:43:45;;;;;;;6.67;5.97;;;;;;;;;;4975633;28;20647;-75
2022/08/08 00:46:46;;;;;;;7.37;6.43;;;;;;;;;;4975072;28;20190;-74
2022/08/08 00:49:36;;;;;;;7.77;6.17;;;;;;;;;;4975443;28;20304;-75
2022/08/08 00:52:10;;;;;;;7.83;6.90;;;;;;;;;;4975228;28;20193;-75
2022/08/08 00:55:04;;;;;;;8.13;6.27;;;;;;;;;;4975483;28;20225;-74
2022/08/08 00:58:05;;;;;;;7.10;6.40;;;;;;;;;;4974930;28;20186;-74
2022/08/08 01:00:47;;;;;;;8.20;7.27;;;;;;;;;;4974271;28;20189;-74
2022/08/08 01:03:35;;;;;;;6.93;6.20;;;;;;;;;;4975230;28;20558;-74
2022/08/08 01:06:47;;;;;;;8.03;6.63;;;;;;;;;;4975420;28;20236;-74
2022/08/08 01:09:29;;;;;;;7.43;6.73;;;;;;;;;;4974946;28;20605;-74
2022/08/08 01:12:37;;;;;;;6.60;6.00;;;;;;;;;;4974814;28;20229;-74
2022/08/08 01:15:36;;;;;;;7.93;6.63;;;;;;;;;;4974839;28;20277;-74
2022/08/08 01:18:23;;;;;;;6.97;6.27;;;;;;;;;;4974927;28;20666;-74
2022/08/08 01:21:31;;;;;;;8.13;6.47;;;;;;;;;;4974523;28;20241;-75
2022/08/08 01:24:44;;;;;;;7.63;6.87;;;;;;;;;;4974544;28;20264;-73
2022/08/08 01:27:40;;;;;;;7.80;6.90;;;;;;;;;;4974360;28;20189;-74
2022/08/08 01:30:29;;;;;;;8.40;7.60;;;;;;;;;;4974857;28;20198;-74
2022/08/08 01:33:13;;;;;;;7.23;6.53;;;;;;;;;;4974446;28;20192;-74
2022/08/08 01:36:15;;;;;;;7.93;7.23;;;;;;;;;;4974571;28;20237;-75
2022/08/08 01:38:59;;;;;;;8.97;8.07;;;;;;;;;;4974765;28;20242;-74
2022/08/08 01:41:32;;;;;;;8.40;7.13;;;;;;;;;;4974489;28;20228;-74
2022/08/08 01:44:12;;;;;;;8.47;7.50;;;;;;;;;;4974816;28;20195;-75
2022/08/08 01:46:44;;;;;;;8.33;7.57;;;;;;;;;;4974837;28;20194;-74
2022/08/08 01:49:18;;;;;;;7.97;7.17;;;;;;;;;;4974290;28;20225;-74
2022/08/08 01:52:08;;;;;;;7.97;7.17;;;;;;;;;;4974844;28;20190;-75
2022/08/08 01:55:07;;;;;;;11.07;7.20;;;;;;;;;;4974263;28;20209;-74
2022/08/08 01:58:07;;;;;;;8.13;7.33;;;;;;;;;;4974273;28;20307;-74
2022/08/08 02:00:46;;;;;;;7.73;7.03;;;;;;;;;;4974830;28;20194;-74
2022/08/08 02:03:32;;;;;;;8.90;7.53;;;;;;;;;;4974348;28;20204;-74
2022/08/08 02:06:26;;;;;;;8.10;7.30;;;;;;;;;;4974449;28;20202;-74
2022/08/08 02:09:07;;;;;;;8.13;7.00;;;;;;;;;;4974565;28;20260;-74
2022/08/08 02:11:47;;;;;;;7.83;7.13;;;;;;;;;;4975501;28;20265;-74
2022/08/08 02:14:29;;;;;;;8.57;7.77;;;;;;;;;;4978411;28;20200;-74
2022/08/08 02:17:03;;;;;;;9.30;8.13;;;;;;;;;;4978034;28;20220;-74
2022/08/08 02:19:40;;;;;;;8.37;7.63;;;;;;;;;;4977985;28;20234;-74
2022/08/08 02:22:32;;;;;;;8.30;7.50;;;;;;;;;;4978078;28;20210;-74
2022/08/08 02:25:06;;;;;;;8.40;7.50;;;;;;;;;;4977621;28;20194;-74
2022/08/08 02:27:46;;;;;;;8.43;7.53;;;;;;;;;;4977736;28;20225;-74
2022/08/08 02:30:18;;;;;;;8.23;7.43;;;;;;;;;;4977875;28;20218;-74
2022/08/08 02:33:06;;;;;;;8.03;7.33;;;;;;;;;;4977893;28;20668;-74
2022/08/08 02:35:42;;;;;;;8.60;7.70;;;;;;;;;;4977902;28;20190;-74
2022/08/08 02:38:45;;;;;;;8.43;7.40;;;;;;;;;;4977625;28;20248;-75
2022/08/08 02:41:32;;;;;;;8.70;7.80;;;;;;;;;;4977773;28;20226;-75
2022/08/08 02:44:35;;;;;;;9.00;8.17;;;;;;;;;;4977746;28;20209;-75
2022/08/08 02:47:37;;;;;;;8.60;7.80;;;;;;;;;;4977658;28;20197;-76
2022/08/08 02:50:24;;;;;;;8.60;7.77;;;;;;;;;;4977408;28;20186;-75
2022/08/08 02:52:59;;;;;;;8.80;8.00;;;;;;;;;;4965950;28;20241;-75
2022/08/08 02:56:00;;;;;;;9.10;7.73;;;;;;;;;;4977648;28;20601;-74
2022/08/08 02:59:01;;;;;;;8.83;7.90;;;;;;;;;;4977348;28;20705;-74
2022/08/08 03:02:05;;;;;;;8.67;7.87;;;;;;;;;;4977502;28;20194;-74
2022/08/08 03:04:52;;;;;;;9.90;7.73;;;;;;;;;;4977541;28;20241;-76
2022/08/08 03:07:55;;;;;;;8.30;7.50;;;;;;;;;;4976998;28;20208;-74
2022/08/08 03:10:38;;;;;;;8.53;7.73;;;;;;;;;;4977277;28;20627;-75
2022/08/08 03:13:32;;;;;;;9.63;8.67;;;;;;;;;;4977024;28;20194;-76
2022/08/08 03:16:39;;;;;;;8.77;7.97;;;;;;;;;;4976883;28;20640;-74
2022/08/08 03:19:24;;;;;;;8.87;7.97;;;;;;;;;;4969234;28;20233;-75
2022/08/08 03:21:52;;;;;;;8.20;7.50;;;;;;;;;;4977150;28;20209;-74
2022/08/08 03:24:28;;;;;;;9.90;8.13;;;;;;;;;;4976356;28;20189;-74
2022/08/08 03:26:59;;;;;;;10.67;8.50;;;;;;;;;;4977058;28;20689;-74
2022/08/08 03:29:30;;;;;;;8.87;7.80;;;;;;;;;;4976646;28;20225;-74
2022/08/08 03:35:10;;;;;;;10.37;8.67;;;;;;;;;;4976926;28;20619;-74
2022/08/08 03:37:40;;;;;;;9.23;8.33;;;;;;;;;;4976542;28;20229;-74
2022/08/08 03:40:30;;;;;;;14.53;8.10;;;;;;;;;;4976739;28;20268;-75
2022/08/08 03:42:59;;;;;;;9.43;8.57;;;;;;;;;;4976952;28;20217;-76
2022/08/08 03:45:47;;;;;;;8.43;7.63;;;;;;;;;;4976772;28;20685;-74
2022/08/08 03:48:35;;;;;;;9.00;8.10;;;;;;;;;;4977164;28;20300;-79
2022/08/08 03:51:24;;;;;;;8.17;7.37;;;;;;;;;;4976745;28;20252;-76
2022/08/08 03:54:13;;;;;;;8.17;7.37;;;;;;;;;;4976376;28;20198;-77
2022/08/08 03:57:02;;;;;;;9.67;7.80;;;;;;;;;;4977052;28;20225;-82
2022/08/08 03:59:51;;;;;;;9.13;8.17;;;;;;;;;;4976084;28;20257;-78
2022/08/08 04:02:34;;;;;;;9.97;8.83;;;;;;;;;;4976525;28;20268;-76
2022/08/08 04:05:15;;;;;;;9.23;8.23;;;;;;;;;;4976416;28;20209;-78
2022/08/08 04:07:56;;;;;;;10.03;8.63;;;;;;;;;;4976477;28;20237;-79
2022/08/08 04:10:25;;;;;;;10.83;8.97;;;;;;;;;;4976497;28;20619;-76
2022/08/08 04:13:01;;;;;;;10.03;9.03;;;;;;;;;;4976433;28;20216;-76
2022/08/08 04:15:45;;;;;;;10.20;9.13;;;;;;;;;;4976069;28;20228;-77
2022/08/08 04:18:30;;;;;;;11.07;8.80;;;;;;;;;;4976490;28;20336;-77
2022/08/08 04:20:59;;;;;;;9.73;8.80;;;;;;;;;;4975677;28;20230;-76
2022/08/08 04:23:28;;;;;;;9.67;8.77;;;;;;;;;;4976382;28;20208;-78
2022/08/08 04:26:16;;;;;;;10.13;9.13;;;;;;;;;;4975495;28;20220;-80
2022/08/08 04:28:48;;;;;;;10.60;9.50;;;;;;;;;;4976031;28;20231;-77
2022/08/08 04:31:21;;;;;;;9.80;8.90;;;;;;;;;;4975867;28;20237;-76
2022/08/08 04:34:10;;;;;;;9.73;8.73;;;;;;;;;;4976029;28;20235;-80
2022/08/08 04:36:39;;;;;;;9.80;8.80;;;;;;;;;;4976343;28;20632;-78
2022/08/08 04:39:07;;;;;;;10.90;9.77;;;;;;;;;;4975828;28;20635;-76
2022/08/08 04:41:56;;;;;;;10.50;9.40;;;;;;;;;;4975901;28;20202;-76
2022/08/08 04:44:25;;;;;;;12.43;10.30;;;;;;;;;;4975434;28;20205;-76
2022/08/08 04:46:54;;;;;;;12.37;9.73;;;;;;;;;;4975896;28;20663;-79
2022/08/08 04:49:25;;;;;;;13.27;10.60;;;;;;;;;;4976092;28;20664;-76
2022/08/08 04:51:56;;;;;;;11.97;10.60;;;;;;;;;;4975485;28;20193;-79
2022/08/08 04:54:25;;;;;;;11.17;9.97;;;;;;;;;;4975437;28;20217;-76
2022/08/08 04:57:07;;;;;;;11.70;10.03;;;;;;;;;;4975582;28;20194;-76
2022/08/08 04:59:37;;;;;;;11.53;10.03;;;;;;;;;;4975853;28;20257;-77
2022/08/08 05:02:10;;;;;;;11.37;10.00;;;;;;;;;;4975442;28;20216;-78
2022/08/08 05:04:41;;;;;;;11.87;10.57;;;;;;;;;;4975506;28;20650;-78
2022/08/08 05:07:11;;;;;;;10.60;9.50;;;;;;;;;;4975273;28;20209;-74
2022/08/08 05:09:42;;;;;;;11.43;9.53;;;;;;;;;;4975495;28;20291;-76
2022/08/08 05:12:11;;;;;;;12.23;9.67;;;;;;;;;;4975991;28;20584;-78
2022/08/08 05:14:50;;;;;;;11.50;10.30;;;;;;;;;;4975445;28;20622;-74
2022/08/08 05:17:20;;;;;;;11.57;10.40;;;;;;;;;;4975136;28;20194;-74
2022/08/08 05:19:49;;;;;;;11.77;10.57;;;;;;;;;;4975188;28;20218;-76
2022/08/08 05:22:37;;;;;;;16.03;11.77;;;;;;;;;;4975374;28;20621;-74
2022/08/08 05:25:06;;;;;;;13.10;11.80;;;;;;;;;;4975080;28;20213;-74
2022/08/08 05:27:34;;;;;;;12.77;11.47;;;;;;;;;;4975687;28;20210;-74
2022/08/08 05:30:13;;;;;;;12.77;11.47;;;;;;;;;;4975180;28;20182;-75
2022/08/08 05:32:41;;;;;;;12.53;11.23;;;;;;;;;;4974888;28;20209;-74
2022/08/08 05:35:11;;;;;;;14.73;13.07;;;;;;;;;;4975438;28;20648;-74
2022/08/08 05:37:44;;;;;;;14.73;13.20;;;;;;;;;;4974981;28;20233;-74
2022/08/08 05:40:21;;;;;;;15.47;12.70;;;;;;;;;;4975065;28;20214;-74
2022/08/08 05:42:58;;;;;;;13.47;12.07;;;;;;;;;;4975515;28;20216;-75
2022/08/08 05:45:32;;;;;;;14.23;12.83;;;;;;;;;;4976763;28;20277;-74
2022/08/08 05:48:20;;;;;;;14.33;12.37;;;;;;;;;;4974257;28;20310;-79
2022/08/08 05:50:56;;;;;;;16.40;13.47;;;;;;;;;;4974968;28;20781;-77
2022/08/08 05:53:26;;;;;;;14.50;13.00;;;;;;;;;;4974970;28;20636;-74
2022/08/08 05:56:15;;;;;;;14.70;13.10;;;;;;;;;;4974620;28;20217;-74
2022/08/08 05:58:46;;;;;;;15.30;12.83;;;;;;;;;;4974446;28;20226;-74
2022/08/08 06:01:33;;;;;;;15.63;14.03;;;;;;;;;;4974541;28;20216;-74
2022/08/08 06:04:24;;;;;;;16.43;13.23;;;;;;;;;;4974592;28;20221;-74
2022/08/08 06:06:53;;;;;;;15.33;13.80;;;;;;;;;;4974211;28;20186;-74
2022/08/08 06:09:31;;;;;;;14.63;13.13;;;;;;;;;;4974160;28;20229;-74
2022/08/08 06:12:20;;;;;;;16.37;12.83;;;;;;;;;;4973975;28;20236;-74
2022/08/08 06:15:00;;;;;;;14.83;13.20;;;;;;;;;;4974581;28;20193;-75
2022/08/08 06:17:31;;;;;;;14.50;13.00;;;;;;;;;;4974505;28;20281;-74
2022/08/08 06:20:20;;;;;;;15.37;13.77;;;;;;;;;;4974914;28;20225;-74
2022/08/08 06:22:50;;;;;;;13.37;12.00;;;;;;;;;;4974863;28;20260;-74
2022/08/08 06:25:18;;;;;;;14.23;12.73;;;;;;;;;;4974023;28;20205;-74
2022/08/08 06:28:11;;;;;;;14.33;12.93;;;;;;;;;;4974508;28;20233;-74
2022/08/08 06:30:40;;;;;;;14.40;12.90;;;;;;;;;;4974532;28;20198;-74
2022/08/08 06:33:12;;;;;;;12.93;11.73;;;;;;;;;;4974636;28;20277;-74
2022/08/08 06:35:46;;;;;;;13.57;11.17;;;;;;;;;;4974372;28;20702;-75
2022/08/08 06:38:37;;;;;;;11.17;10.10;;;;;;;;;;4974087;28;20316;-74
2022/08/08 06:41:11;;;;;;;10.80;9.50;;;;;;;;;;4974471;28;20679;-74
2022/08/08 06:43:44;;;;;;;11.17;10.07;;;;;;;;;;4974543;28;20627;-74
2022/08/08 06:46:24;;;;;;;12.57;9.60;;;;;;;;;;4974309;28;20245;-74
2022/08/08 06:48:58;;;;;;;13.07;9.50;;;;;;;;;;4973964;28;20233;-74
2022/08/08 06:51:27;;;;;;;12.23;10.10;;;;;;;;;;4975186;28;20681;-74
2022/08/08 06:54:14;;;;;;;13.97;9.93;;;;;;;;;;4974250;28;20213;-75
2022/08/08 06:56:45;;;;;;;11.13;8.63;;;;;;;;;;4974375;28;20631;-75
2022/08/08 06:59:18;;;;;;;9.67;8.67;;;;;;;;;;4975707;28;20716;-74
2022/08/08 07:01:53;;;;;;;11.97;8.83;;;;;;;;;;4977342;28;20316;-74
2022/08/08 07:04:46;;;;;;;11.90;7.88;;;;;;;;;;4977128;28;20257;-74
2022/08/08 07:07:22;;;;;;;11.82;8.30;;;;;;;;;;4977208;28;20222;-75
2022/08/08 07:09:55;;;;;;;9.27;8.27;;;;;;;;;;4977417;28;20273;-74
2022/08/08 07:12:31;;;;;;;8.57;7.63;;;;;;;;;;4977082;28;20182;-74
2022/08/08 07:15:03;;;;;;;9.18;7.10;;;;;;;;;;4977276;28;20197;-74
2022/08/08 07:17:36;;;;;;;8.40;7.60;;;;;;;;;;4977033;28;20213;-74
2022/08/08 07:20:28;;;;;;;8.60;7.68;;;;;;;;;;4976932;28;20287;-74
2022/08/08 07:23:01;;;;;;;7.93;7.10;;;;;;;;;;4977341;28;20210;-74
2022/08/08 07:25:33;;;;;;;8.07;7.28;;;;;;;;;;4977216;28;20635;-75
2022/08/08 07:28:06;;;;;;;7.57;6.80;;;;;;;;;;4976664;28;20230;-74
2022/08/08 07:30:36;;;;;;;7.47;6.78;;;;;;;;;;4976810;28;20564;-74
2022/08/08 07:33:10;;;;;;;8.35;6.05;;;;;;;;;;4976997;28;20194;-74
2022/08/08 07:35:47;;;;;;;7.82;5.95;;;;;;;;;;4977138;28;20194;-75
2022/08/08 07:38:19;;;;;;;8.07;5.65;;;;;;;;;;4966917;28;20315;-74
2022/08/08 07:40:57;;;;;;;7.78;6.07;;;;;;;;;;4954949;29;20272;-74
2022/08/08 07:43:26;;;;;;;6.63;5.95;;;;;;;;;;4955936;29;20237;-75
2022/08/08 07:46:05;;;;;;;6.30;5.22;;;;;;;;;;4956560;29;20550;-75
2022/08/08 07:48:51;;;;;;;6.63;4.95;;;;;;;;;;4956426;29;20718;-75
2022/08/08 07:51:21;;;;;;;7.80;5.78;;;;;;;;;;4956943;29;20282;-78
2022/08/08 07:54:18;;;;;;;6.45;5.28;;;;;;;;;;4956977;28;20706;-79
2022/08/08 07:56:59;;;;;;;6.63;5.15;;;;;;;;;;4957058;29;20222;-79
2022/08/08 07:59:31;;;;;;;5.15;4.68;;;;;;;;;;4957357;29;20261;-78
2022/08/08 08:02:06;;;;;;;5.95;5.30;;;;;;;;;;4957081;29;20215;-78
2022/08/08 08:04:56;;;;;;;5.30;4.80;;;;;;;;;;4957033;28;20202;-77
2022/08/08 08:07:33;;;;;;;5.72;5.10;;;;;;;;;;4957204;28;20194;-78
2022/08/08 08:10:06;;;;;;;6.28;5.03;;;;;;;;;;4956853;28;20624;-79
2022/08/08 08:12:42;;;;;;;5.38;4.65;;;;;;;;;;4956986;29;20652;-78
2022/08/08 08:15:12;;;;;;;5.25;4.45;;;;;;;;;;4957085;28;20187;-79
2022/08/08 08:17:44;;;;;;;5.47;4.70;;;;;;;;;;4956909;29;20223;-78
2022/08/08 08:20:18;;;;;;;6.47;4.70;;;;;;;;;;4956818;29;20210;-78
2022/08/08 08:22:49;;;;;;;4.50;4.10;;;;;;;;;;4956322;29;20265;-78
2022/08/08 08:25:18;;;;;;;4.40;3.70;;;;;;;;;;4956584;29;20222;-79
2022/08/08 08:28:07;;;;;;;4.22;3.50;;;;;;;;;;4956598;29;20226;-79
2022/08/08 08:30:37;;;;;;;6.57;3.83;;;;;;;;;;4956940;29;20187;-79
2022/08/08 08:33:05;;;;;;;5.13;3.60;;;;;;;;;;4956392;29;20214;-78
2022/08/08 08:35:39;;;;;;;4.93;3.75;;;;;;;;;;4957107;29;20213;-79
2022/08/08 08:38:30;;;;;;;4.57;3.60;;;;;;;;;;4956200;29;20261;-79
2022/08/08 08:40:59;;;;;;;3.80;3.50;;;;;;;;;;4956284;29;20237;-79
2022/08/08 08:43:31;;;;;;;3.97;3.20;;;;;;;;;;4956128;29;20214;-79
2022/08/08 08:46:00;;;;;;;4.95;3.53;;;;;;;;;;4956348;29;20690;-79
2022/08/08 08:48:31;;;;;;;4.88;3.70;;;;;;;;;;4956324;29;20226;-79
2022/08/08 08:51:01;;;;;;;5.40;3.00;;;;;;;;;;4955966;29;20202;-79
2022/08/08 08:53:34;;;;;;;4.35;3.38;;;;;;;;;;4956427;29;20285;-79
2022/08/08 08:56:24;;;;;;;3.65;3.20;;;;;;;;;;4955783;28;20214;-78
2022/08/08 08:59:04;;;;;;;3.90;3.05;;;;;;;;;;4957777;28;20237;-79
2022/08/08 09:01:42;;;;;;;3.28;2.95;;;;;;;;;;4956015;29;20230;-74
2022/08/08 09:04:15;;;;;;;3.28;3.00;;;;;;;;;;4963384;28;20246;-76
2022/08/08 09:07:04;;;;;;;4.15;3.10;;;;;;;;;;4970492;28;20202;-75
2022/08/08 09:09:42;;;;;;;4.88;3.10;;;;;;;;;;4970558;28;20706;-75
2022/08/08 09:12:19;;;;;;;3.92;3.40;;;;;;;;;;4979799;28;20558;-74
2022/08/08 09:14:49;;;;;;;3.53;3.22;;;;;;;;;;4975163;28;20209;-76
2022/08/08 09:17:19;;;;;;;4.97;3.65;;;;;;;;;;4974291;28;20643;-75
2022/08/08 09:20:12;;;;;;;3.65;3.28;;;;;;;;;;4973837;28;20267;-75
2022/08/08 09:23:01;;;;;;;4.95;3.30;;;;;;;;;;4974389;28;20254;-76
2022/08/08 09:25:33;;;;;;;4.22;3.30;;;;;;;;;;4973745;28;20252;-74
2022/08/08 09:28:24;;;;;;;3.65;3.28;;;;;;;;;;4989947;28;20239;-76
2022/08/08 09:31:07;;;;;;;3.65;3.15;;;;;;;;;;4974058;28;20667;-74
2022/08/08 09:33:42;;;;;;;3.33;3.03;;;;;;;;;;4973795;28;20264;-76
2022/08/08 09:36:34;;;;;;;5.13;3.08;;;;;;;;;;4973343;28;20278;-75
2022/08/08 09:39:05;;;;;;;3.33;2.90;;;;;;;;;;4973519;28;20229;-75
2022/08/08 09:41:44;;;;;;;3.65;3.08;;;;;;;;;;4973848;28;20256;-75
2022/08/08 09:44:41;;;;;;;4.15;3.00;;;;;;;;;;4973467;28;20241;-75
2022/08/08 09:47:10;;;;;;;3.67;3.13;;;;;;;;;;4973309;28;20257;-76
2022/08/08 09:49:59;;;;;;;4.47;3.20;;;;;;;;;;4966945;28;20587;-76
2022/08/08 09:52:33;;;;;;;3.38;3.08;;;;;;;;;;4973157;28;20202;-76
2022/08/08 09:55:23;;;;;;;3.55;2.92;;;;;;;;;;4967182;28;20674;-77
2022/08/08 09:58:16;;;;;;;4.25;3.00;;;;;;;;;;4966560;28;20244;-75
2022/08/08 10:00:56;;;;;;;3.72;3.10;;;;;;;;;;4970330;28;20208;-76
2022/08/08 10:03:27;;;;;;;3.45;3.10;;;;;;;;;;4966621;28;20218;-76
2022/08/08 10:05:59;;;;;;;4.13;3.10;;;;;;;;;;4972278;28;20209;-76
2022/08/08 10:08:32;;;;;;;4.25;2.85;;;;;;;;;;4968050;28;20229;-75
2022/08/08 10:11:02;;;;;;;3.63;3.20;;;;;;;;;;4973450;28;20260;-76
2022/08/08 10:13:57;;;;;;;4.15;3.08;;;;;;;;;;4968177;28;20288;-76
2022/08/08 10:16:37;;;;;;;3.92;3.00;;;;;;;;;;4972663;28;20670;-76
2022/08/08 10:19:07;;;;;;;3.50;3.20;;;;;;;;;;4965342;28;20225;-75
2022/08/08 10:21:36;;;;;;;3.35;3.05;;;;;;;;;;4972679;28;20218;-76
2022/08/08 10:24:18;;;;;;;3.50;2.92;;;;;;;;;;4973815;28;20209;-76
2022/08/08 10:26:59;;;;;;;4.15;3.15;;;;;;;;;;4959310;28;20999;-75
2022/08/08 10:29:46;;;;;;;3.80;3.40;;;;;;;;;;4971257;28;20229;-76
2022/08/08 10:32:34;;;;;;;3.22;2.92;;;;;;;;;;4971194;28;20261;-76
2022/08/08 10:35:07;;;;;;;3.30;2.97;;;;;;;;;;4976197;28;20304;-76
2022/08/08 10:37:43;;;;;;;4.35;2.70;;;;;;;;;;4976421;28;20209;-75
2022/08/08 10:40:14;;;;;;;3.17;2.88;;;;;;;;;;4976889;28;20202;-76
2022/08/08 10:42:48;;;;;;;3.00;2.80;;;;;;;;;;4975776;28;20205;-76
2022/08/08 10:45:17;;;;;;;4.38;3.00;;;;;;;;;;4973839;28;20213;-76
2022/08/08 10:47:52;;;;;;;3.47;2.72;;;;;;;;;;4965923;28;20254;-77
2022/08/08 10:50:23;;;;;;;3.47;3.00;;;;;;;;;;4969190;28;20304;-77
2022/08/08 10:53:01;;;;;;;4.72;3.35;;;;;;;;;;4977318;28;20256;-77
2022/08/08 10:55:32;;;;;;;3.65;3.30;;;;;;;;;;4970479;28;20201;-77
2022/08/08 10:58:13;;;;;;;4.20;3.10;;;;;;;;;;4973033;28;20593;-77
2022/08/08 11:00:43;;;;;;;3.00;2.70;;;;;;;;;;4971180;28;20206;-77
2022/08/08 11:03:40;;;;;;;3.88;2.90;;;;;;;;;;4971134;28;20236;-77
2022/08/08 11:06:32;;;;;;;3.33;3.03;;;;;;;;;;4964783;28;20596;-76
2022/08/08 11:09:03;;;;;;;2.58;2.38;;;;;;;;;;4969592;28;20217;-76
2022/08/08 11:11:48;;;;;;;3.10;2.50;;;;;;;;;;4968821;28;20210;-77
2022/08/08 11:14:48;;;;;;;3.17;2.85;;;;;;;;;;4962672;28;20249;-77
2022/08/08 11:17:17;;;;;;;3.72;2.60;;;;;;;;;;4966297;28;20232;-76
2022/08/08 11:20:08;;;;;;;3.05;2.42;;;;;;;;;;4974513;28;20249;-76
2022/08/08 11:22:40;;;;;;;3.05;2.75;;;;;;;;;;4962811;28;20210;-77
2022/08/08 11:25:11;;;;;;;3.58;3.00;;;;;;;;;;4965459;28;20609;-77
2022/08/08 11:27:43;;;;;;;3.95;3.08;;;;;;;;;;4961251;28;20222;-77
2022/08/08 11:30:14;;;;;;;3.42;3.13;;;;;;;;;;4969748;28;20205;-77
2022/08/08 11:32:55;;;;;;;3.25;2.92;;;;;;;;;;4976666;28;20671;-77
2022/08/08 11:35:25;;;;;;;2.70;2.40;;;;;;;;;;4971350;28;20253;-77
2022/08/08 11:38:09;;;;;;;2.90;2.47;;;;;;;;;;4972804;28;20225;-76
2022/08/08 11:40:57;;;;;;;3.33;2.70;;;;;;;;;;4976077;28;20221;-77
2022/08/08 11:43:27;;;;;;;2.83;2.45;;;;;;;;;;4975630;28;20237;-77
2022/08/08 11:46:09;;;;;;;3.05;2.75;;;;;;;;;;4972620;28;20289;-76
2022/08/08 11:48:45;;;;;;;4.40;2.70;;;;;;;;;;4974673;28;20225;-77
2022/08/08 11:51:17;;;;;;;3.80;2.70;;;;;;;;;;4975340;28;20241;-77
2022/08/08 11:54:06;;;;;;;4.32;2.88;;;;;;;;;;4970033;28;20202;-77
2022/08/08 11:56:55;;;;;;;5.03;2.67;;;;;;;;;;4974427;28;20264;-77
2022/08/08 11:59:32;;;;;;;2.55;2.35;;;;;;;;;;4969852;28;20229;-76
2022/08/08 12:02:21;;;;;;;2.72;2.38;;;;;;;;;;4964690;28;20722;-77
2022/08/08 12:05:01;;;;;;;3.10;2.50;;;;;;;;;;4969926;28;20229;-77
2022/08/08 12:07:31;;;;;;;3.70;2.72;;;;;;;;;;4967481;28;20206;-76
2022/08/08 12:10:10;;;;;;;2.80;2.50;;;;;;;;;;4977290;28;20206;-77
2022/08/08 12:12:42;;;;;;;5.35;2.50;;;;;;;;;;4962843;28;20206;-77
2022/08/08 12:15:25;;;;;;;2.55;2.30;;;;;;;;;;4969754;28;20619;-77
2022/08/08 12:17:54;;;;;;;3.28;2.40;;;;;;;;;;4976689;28;20233;-77
2022/08/08 12:20:23;;;;;;;3.05;2.53;;;;;;;;;;4976479;28;20218;-77
2022/08/08 12:22:54;;;;;;;5.13;2.50;;;;;;;;;;4975042;28;20250;-77
2022/08/08 12:25:25;;;;;;;2.65;2.45;;;;;;;;;;4973492;28;20589;-77
2022/08/08 12:28:09;;;;;;;2.45;2.25;;;;;;;;;;4976510;28;20603;-77
2022/08/08 12:30:44;;;;;;;2.85;2.60;;;;;;;;;;4974915;28;20213;-77
2022/08/08 12:33:19;;;;;;;2.70;2.40;;;;;;;;;;4975981;28;20682;-77
2022/08/08 12:35:47;;;;;;;2.50;2.30;;;;;;;;;;4973758;28;20201;-77
2022/08/08 12:38:21;;;;;;;6.60;2.50;;;;;;;;;;4630738;28;10000042;-77
2022/08/08 12:40:58;;;;;;;3.70;2.80;;;;;;;;;;4968478;28;20213;-77
2022/08/08 12:43:47;;;;;;;3.10;2.78;;;;;;;;;;4961769;28;20307;-77
2022/08/08 12:46:28;;;;;;;2.80;2.53;;;;;;;;;;4968273;28;20216;-76
2022/08/08 12:48:58;;;;;;;5.88;2.67;;;;;;;;;;4967553;28;20234;-78
2022/08/08 12:51:49;;;;;;;4.13;2.83;;;;;;;;;;4967387;28;20237;-77
2022/08/08 12:54:30;;;;;;;2.92;2.65;;;;;;;;;;4962757;28;20703;-76
2022/08/08 12:57:13;;;;;;;4.72;2.97;;;;;;;;;;4967280;28;20212;-77
2022/08/08 12:59:50;;;;;;;3.42;2.45;;;;;;;;;;4967351;28;20234;-77
2022/08/08 13:02:35;;;;;;;2.90;2.50;;;;;;;;;;4962983;28;20253;-77
2022/08/08 13:05:20;;;;;;;3.80;2.55;;;;;;;;;;4971740;28;20237;-78
2022/08/08 13:08:15;;;;;;;3.63;2.63;;;;;;;;;;4970129;28;20265;-78
2022/08/08 13:10:52;;;;;;;2.60;2.40;;;;;;;;;;4972767;28;20206;-77
2022/08/08 13:13:31;;;;;;;3.33;2.72;;;;;;;;;;4973950;28;20722;-77
2022/08/08 13:16:18;;;;;;;3.67;2.53;;;;;;;;;;4973042;28;20194;-77
2022/08/08 13:18:47;;;;;;;3.78;2.75;;;;;;;;;;4972157;28;20225;-77
2022/08/08 13:21:29;;;;;;;3.30;2.88;;;;;;;;;;4969476;28;20221;-77
2022/08/08 13:24:20;;;;;;;2.85;2.53;;;;;;;;;;4969022;28;20702;-77
2022/08/08 13:27:11;;;;;;;3.05;2.75;;;;;;;;;;4969538;28;20210;-77
2022/08/08 13:29:49;;;;;;;3.42;2.67;;;;;;;;;;4972426;28;20225;-77
2022/08/08 13:32:18;;;;;;;7.50;2.80;;;;;;;;;;4970574;28;20658;-77
2022/08/08 13:34:56;;;;;;;5.95;2.90;;;;;;;;;;4966624;28;20225;-77
2022/08/08 13:37:26;;;;;;;3.78;2.95;;;;;;;;;;4969991;28;20198;-77
2022/08/08 13:40:16;;;;;;;4.38;2.80;;;;;;;;;;4971700;28;20329;-78
2022/08/08 13:42:56;;;;;;;3.38;2.90;;;;;;;;;;4971403;28;20220;-76
2022/08/08 13:45:26;;;;;;;3.08;2.78;;;;;;;;;;4970104;28;20588;-77
2022/08/08 13:47:58;;;;;;;2.58;2.38;;;;;;;;;;4966867;28;20233;-77
2022/08/08 13:50:29;;;;;;;3.60;2.80;;;;;;;;;;4971892;28;20202;-77
2022/08/08 13:53:26;;;;;;;3.95;2.90;;;;;;;;;;4964930;28;20236;-77
2022/08/08 13:56:04;;;;;;;3.20;2.90;;;;;;;;;;4971309;28;20294;-77
2022/08/08 13:58:34;;;;;;;2.80;2.45;;;;;;;;;;4966435;28;20237;-77
2022/08/08 14:01:12;;;;;;;3.25;2.65;;;;;;;;;;4972043;28;20214;-76
2022/08/08 14:03:52;;;;;;;3.33;3.00;;;;;;;;;;4971866;28;20320;-78
2022/08/08 14:06:23;;;;;;;4.78;2.75;;;;;;;;;;4967575;28;20225;-77
2022/08/08 14:09:01;;;;;;;3.20;2.90;;;;;;;;;;4974264;28;20281;-77
2022/08/08 14:11:50;;;;;;;3.30;3.00;;;;;;;;;;4975853;28;20209;-77
2022/08/08 14:14:23;;;;;;;3.10;2.80;;;;;;;;;;4976158;28;20232;-77
2022/08/08 14:16:54;;;;;;;3.85;3.03;;;;;;;;;;4982528;28;20208;-77
2022/08/08 14:19:37;;;;;;;3.00;2.70;;;;;;;;;;4979207;28;20566;-79
2022/08/08 14:22:27;;;;;;;4.03;2.80;;;;;;;;;;4978476;28;20572;-80
2022/08/08 14:24:57;;;;;;;3.72;2.92;;;;;;;;;;4975882;28;20213;-78
2022/08/08 14:27:28;;;;;;;3.85;2.92;;;;;;;;;;4978262;28;20210;-79
2022/08/08 14:30:04;;;;;;;4.22;2.60;;;;;;;;;;4987920;28;20219;-80
2022/08/08 14:32:50;;;;;;;3.83;2.70;;;;;;;;;;4980608;28;20213;-78
2022/08/08 14:35:22;;;;;;;3.55;2.80;;;;;;;;;;4975362;28;20193;-78
2022/08/08 14:37:51;;;;;;;3.15;2.85;;;;;;;;;;4978034;28;20229;-78
2022/08/08 14:40:28;;;;;;;4.60;2.85;;;;;;;;;;4977074;28;20573;-79
2022/08/08 14:42:58;;;;;;;2.88;2.67;;;;;;;;;;4996728;28;20263;-79
2022/08/08 14:45:30;;;;;;;4.57;2.88;;;;;;;;;;4978573;28;20214;-79
2022/08/08 14:48:19;;;;;;;3.08;2.70;;;;;;;;;;4977391;28;20280;-79
2022/08/08 14:51:06;;;;;;;3.50;2.60;;;;;;;;;;4971569;28;20229;-78
2022/08/08 14:53:39;;;;;;;3.42;3.10;;;;;;;;;;4977069;28;20538;-78
2022/08/08 14:56:23;;;;;;;3.10;2.60;;;;;;;;;;4976832;28;20205;-78
2022/08/08 14:58:54;;;;;;;2.70;2.50;;;;;;;;;;4977703;28;20668;-78
2022/08/08 15:01:28;;;;;;;3.00;2.70;;;;;;;;;;4977564;28;20575;-79
2022/08/08 15:04:09;;;;;;;4.00;2.80;;;;;;;;;;4977737;28;20194;-76
2022/08/08 15:06:38;;;;;;;4.55;2.90;;;;;;;;;;4971680;28;20221;-75
2022/08/08 15:09:18;;;;;;;3.38;3.05;;;;;;;;;;4979662;28;20240;-75
2022/08/08 15:11:50;;;;;;;4.65;2.70;;;;;;;;;;4977241;28;20225;-75
2022/08/08 15:14:20;;;;;;;4.13;2.70;;;;;;;;;;4976780;28;20198;-76
2022/08/08 15:16:55;;;;;;;3.67;2.80;;;;;;;;;;4976810;28;20209;-74
2022/08/08 15:19:24;;;;;;;3.63;2.78;;;;;;;;;;4969927;28;20656;-76
2022/08/08 15:21:56;;;;;;;2.85;2.60;;;;;;;;;;4973632;28;20244;-74
2022/08/08 15:24:25;;;;;;;3.60;2.63;;;;;;;;;;4972522;28;20647;-74
2022/08/08 15:26:59;;;;;;;3.85;2.85;;;;;;;;;;4976750;28;20713;-74
2022/08/08 15:29:48;;;;;;;3.17;2.42;;;;;;;;;;4973244;28;20213;-75
2022/08/08 15:32:18;;;;;;;2.53;2.30;;;;;;;;;;4977174;28;20206;-74
2022/08/08 15:34:51;;;;;;;3.47;2.80;;;;;;;;;;4974295;28;20205;-76
2022/08/08 15:37:20;;;;;;;3.53;2.50;;;;;;;;;;4972070;28;20201;-75
2022/08/08 15:39:55;;;;;;;4.30;2.83;;;;;;;;;;4972989;28;20201;-74
2022/08/08 15:42:31;;;;;;;6.28;2.60;;;;;;;;;;4969298;28;20210;-74
2022/08/08 15:45:00;;;;;;;2.70;2.50;;;;;;;;;;4976683;28;20237;-74
2022/08/08 15:47:33;;;;;;;3.05;2.30;;;;;;;;;;4975106;28;20221;-74
2022/08/08 15:50:02;;;;;;;3.58;2.70;;;;;;;;;;4976052;28;20201;-75
2022/08/08 15:52:30;;;;;;;3.45;2.53;;;;;;;;;;4979359;28;20723;-75